Time;durP1;ratioP1;P1;durP2;ratioP2;P2;SDS_P1;SDS_P2;PMS_P1;PMS_P2;Temp;Humidity;BMP_temperature;BMP_pressure;BME280_temperature;BME280_humidity;BME280_pressure;Samples;Min_cycle;Max_cycle;Signal;HPM_P1;HPM_P2
2022/06/02 00:00:26;;;;;;;0.93;0.50;;;19.40;97.80;;;;;;20811726;28;20260;-86
2022/06/02 00:10:28;;;;;;;1.03;0.60;;;;;;;;;;20809543;28;20221;-85
2022/06/02 00:20:39;;;;;;;0.93;0.53;;;;;;;;;;20809723;28;20225;-86
2022/06/02 00:30:50;;;;;;;1.17;0.50;;;;;;;;;;20809689;28;20239;-86
2022/06/02 00:40:52;;;;;;;0.83;0.60;;;;;;;;;;20825501;28;20228;-86
2022/06/02 00:51:07;;;;;;;1.33;0.60;;;;;;;;;;20891232;28;20260;-86
2022/06/02 01:01:18;;;;;;;1.13;0.50;;;;;;;;;;20891597;28;20282;-87
2022/06/02 01:11:38;;;;;;;1.60;0.57;;;;;;;;;;20902896;28;20278;-87
2022/06/02 01:21:43;;;;;;;1.03;0.57;;;;;;;;;;20915559;28;20275;-86
2022/06/02 01:31:48;;;;;;;0.70;0.50;;;;;;;;;;20904650;28;20219;-85
2022/06/02 01:42:21;;;;;;;1.63;0.60;;;18.10;99.90;;;;;;20888460;28;20226;-87
2022/06/02 01:52:23;;;;;;;0.90;0.77;;;;;;;;;;20921705;28;20240;-85
2022/06/02 02:02:31;;;;;;;1.77;0.90;;;;;;;;;;20902028;28;20234;-86
2022/06/02 02:12:38;;;;;;;1.83;0.80;;;;;;;;;;20918377;28;20263;-84
2022/06/02 02:22:45;;;;;;;3.63;0.93;;;;;;;;;;20916344;28;20214;-84
2022/06/02 02:32:59;;;;;;;1.20;0.60;;;17.40;99.90;;;;;;20914778;28;20210;-84
2022/06/02 02:43:08;;;;;;;3.00;0.60;;;;;;;;;;20915301;28;20225;-85
2022/06/02 02:53:14;;;;;;;1.00;0.70;;;17.40;99.90;;;;;;20914940;28;20218;-85
2022/06/02 03:03:41;;;;;;;1.63;0.87;;;13.30;89.40;;;;;;20914389;28;20202;-84
2022/06/02 03:13:52;;;;;;;2.17;0.60;;;;;;;;;;20881504;28;20263;-85
2022/06/02 03:24:05;;;;;;;1.40;0.70;;;;;;;;;;20798484;28;20238;-85
2022/06/02 03:34:10;;;;;;;1.73;0.70;;;;;;;;;;20812187;28;20639;-85
2022/06/02 03:44:32;;;;;;;1.33;0.70;;;;;;;;;;20846355;28;20692;-85
2022/06/02 03:54:34;;;;;;;0.97;0.70;;;;;;;;;;20792481;28;20616;-85
2022/06/02 04:04:44;;;;;;;1.93;0.90;;;;;;;;;;20809809;28;20359;-85
2022/06/02 04:14:53;;;;;;;8.17;1.60;;;;;;;;;;20792505;28;20225;-85
2022/06/02 04:25:11;;;;;;;1.63;0.80;;;;;;;;;;20809547;28;20230;-85
2022/06/02 04:35:25;;;;;;;1.30;0.80;;;16.40;99.90;;;;;;20808581;28;20704;-85
2022/06/02 04:45:27;;;;;;;2.13;1.03;;;;;;;;;;20796951;28;20215;-84
2022/06/02 04:55:41;;;;;;;1.00;0.67;;;;;;;;;;20810495;28;20578;-86
2022/06/02 05:05:56;;;;;;;1.37;0.60;;;16.60;99.90;;;;;;20841122;28;20687;-86
2022/06/02 05:16:07;;;;;;;1.10;0.87;;;;;;;;;;20840131;28;20272;-86
2022/06/02 05:26:11;;;;;;;1.03;0.70;;;;;;;;;;20857858;28;20222;-86
2022/06/02 05:36:22;;;;;;;0.93;0.83;;;;;;;;;;20874260;28;20506;-86
2022/06/02 05:46:27;;;;;;;3.13;0.93;;;;;;;;;;20887944;28;20235;-86
2022/06/02 05:56:35;;;;;;;1.03;0.77;;;;;;;;;;20909845;28;20222;-86
2022/06/02 06:06:39;;;;;;;3.07;1.30;;;;;;;;;;20903963;28;20650;-86
2022/06/02 06:16:44;;;;;;;1.40;1.03;;;;;;;;;;20888097;28;20400;-85
2022/06/02 06:27:11;;;;;;;2.30;1.20;;;18.10;99.90;;;;;;20824628;28;20230;-87
2022/06/02 06:37:23;;;;;;;1.90;1.30;;;;;;;;;;20834501;28;20215;-88
2022/06/02 06:47:31;;;;;;;1.37;0.90;;;;;;;;;;20828490;28;20198;-86
2022/06/02 06:57:39;;;;;;;1.77;1.20;;;;;;;;;;20803148;28;20280;-87
2022/06/02 07:07:46;;;;;;;2.03;1.30;;;;;;;;;;20785763;28;20206;-86
2022/06/02 07:17:52;;;;;;;3.10;1.23;;;;;;;;;;20800962;28;20222;-84
2022/06/02 07:28:19;;;;;;;1.43;1.00;;;;;;;;;;20801398;28;20260;-86
2022/06/02 07:38:40;;;;;;;3.40;1.50;;;;;;;;;;20797381;28;20230;-86
2022/06/02 07:48:48;;;;;;;1.60;1.00;;;;;;;;;;20782006;28;20266;-86
2022/06/02 07:59:00;;;;;;;2.00;1.10;;;;;;;;;;20813098;28;20235;-84
2022/06/02 08:09:46;;;;;;;2.07;1.00;;;20.10;96.00;;;;;;20814007;28;20276;-86
2022/06/02 08:20:00;;;;;;;1.70;1.20;;;;;;;;;;20797230;28;20226;-87
2022/06/02 08:30:01;;;;;;;1.10;0.63;;;;;;;;;;20764722;28;20291;-87
2022/06/02 08:40:10;;;;;;;1.07;0.57;;;;;;;;;;20745590;28;20233;-86
2022/06/02 08:50:34;;;;;;;1.03;0.60;;;;;;;;;;20745673;28;20682;-86
2022/06/02 09:00:36;;;;;;;0.87;0.60;;;;;;;;;;20759887;28;20605;-87
2022/06/02 09:10:56;;;;;;;1.03;0.60;;;;;;;;;;20809325;28;20209;-87
2022/06/02 09:21:14;;;;;;;1.13;0.67;;;21.40;90.10;;;;;;20830390;28;20282;-86
2022/06/02 09:31:29;;;;;;;1.13;0.70;;;;;;;;;;20817684;28;20502;-87
2022/06/02 09:41:40;;;;;;;1.00;0.63;;;;;;;;;;20790929;28;20274;-87
2022/06/02 09:51:48;;;;;;;1.20;0.73;;;;;;;;;;20867495;28;20213;-86
2022/06/02 10:02:24;;;;;;;0.90;0.70;;;;;;;;;;20863885;28;20268;-88
2022/06/02 10:12:58;;;;;;;1.43;0.80;;;;;;;;;;20738832;28;20217;-87
2022/06/02 10:23:12;;;;;;;1.87;0.70;;;;;;;;;;20845140;28;20253;-87
2022/06/02 10:33:41;;;;;;;1.07;0.67;;;;;;;;;;20911718;28;20607;-88
2022/06/02 10:43:55;;;;;;;0.90;0.67;;;;;;;;;;20910788;28;20227;-89
2022/06/02 10:54:09;;;;;;;1.20;0.70;;;;;;;;;;20815068;28;20216;-87
2022/06/02 11:04:30;;;;;;;0.80;0.60;;;;;;;;;;20811045;28;20256;-88
2022/06/02 11:14:37;;;;;;;1.15;0.70;;;;;;;;;;20794052;28;20233;-87
2022/06/02 11:24:52;;;;;;;1.03;0.60;;;;;;;;;;20763471;28;20251;-88
2022/06/02 11:46:38;;;;;;;1.63;0.70;;;;;;;;;;20733654;28;20220;-87
2022/06/02 11:56:53;;;;;;;0.85;0.40;;;;;;;;;;20759947;28;20219;-88
2022/06/02 12:06:54;;;;;;;0.57;0.40;;;;;;;;;;20715265;28;20285;-86
2022/06/02 12:17:19;;;;;;;0.82;0.50;;;23.10;73.70;;;;;;20774492;28;20530;-85
2022/06/02 12:27:39;;;;;;;0.60;0.50;;;;;;;;;;20752813;28;20240;-88
2022/06/02 12:38:25;;;;;;;1.13;0.50;;;;;;;;;;20750165;28;20640;-88
2022/06/02 12:48:45;;;;;;;0.50;0.40;;;;;;;;;;20745967;28;20211;-87
2022/06/02 12:59:28;;;;;;;0.40;0.40;;;24.20;71.70;;;;;;20744665;28;20220;-88
2022/06/02 13:09:37;;;;;;;2.20;0.40;;;;;;;;;;20747443;28;20297;-86
2022/06/02 13:20:07;;;;;;;0.77;0.60;;;24.50;70.70;;;;;;20735813;28;20229;-87
2022/06/02 13:30:47;;;;;;;0.63;0.40;;;25.00;70.70;;;;;;20743574;28;20692;-88
2022/06/02 13:40:59;;;;;;;0.70;0.47;;;;;;;;;;20829524;28;20280;-89
2022/06/02 13:51:07;;;;;;;0.63;0.40;;;;;;;;;;20762203;28;20266;-88
2022/06/02 14:01:40;;;;;;;0.30;0.30;;;25.50;68.50;;;;;;20743387;28;20289;-89
2022/06/02 14:11:49;;;;;;;1.25;0.40;;;;;;;;;;20759066;28;20319;-89
2022/06/02 14:22:03;;;;;;;2.60;0.40;;;;;;;;;;20742292;28;20755;-89
2022/06/02 14:32:28;;;;;;;0.88;0.50;;;;;;;;;;20833723;28;20215;-88
2022/06/02 14:43:03;;;;;;;0.60;0.40;;;;;;;;;;20837544;28;20228;-89
2022/06/02 14:53:15;;;;;;;0.50;0.40;;;;;;;;;;20836878;28;20700;-88
2022/06/02 15:03:23;;;;;;;0.50;0.40;;;;;;;;;;20849906;28;20662;-88
2022/06/02 15:24:15;;;;;;;1.50;0.40;;;;;;;;;;20908236;28;20223;-88
2022/06/02 15:34:43;;;;;;;0.80;0.40;;;;;;;;;;20920543;28;20602;-88
2022/06/02 15:56:09;;;;;;;1.05;0.40;;;;;;;;;;20842885;28;20227;-89
2022/06/02 16:06:12;;;;;;;1.15;0.40;;;;;;;;;;20892880;28;20241;-89
2022/06/02 16:16:32;;;;;;;0.70;0.40;;;;;;;;;;20864111;28;20223;-88
2022/06/02 16:26:46;;;;;;;0.50;0.40;;;;;;;;;;20895199;28;20238;-86
2022/06/02 16:36:51;;;;;;;0.60;0.40;;;;;;;;;;20963133;28;20228;-90
2022/06/02 16:47:08;;;;;;;0.60;0.40;;;;;;;;;;20908857;28;20279;-89
2022/06/02 16:57:19;;;;;;;0.45;0.38;;;;;;;;;;20878094;28;20294;-87
2022/06/02 17:07:58;;;;;;;1.92;1.50;;;26.00;71.50;;;;;;20901906;28;20207;-88
2022/06/02 17:18:26;;;;;;;0.57;0.30;;;;;;;;;;20892174;28;20225;-88
2022/06/02 17:29:28;;;;;;;0.63;0.30;;;;;;;;;;20864582;28;20227;-88
2022/06/02 17:39:37;;;;;;;0.52;0.40;;;;;;;;;;20887921;28;20285;-88
2022/06/02 17:49:48;;;;;;;2.65;0.40;;;;;;;;;;20907836;28;20270;-87
2022/06/02 18:00:03;;;;;;;0.60;0.40;;;;;;;;;;20894780;28;20523;-88
2022/06/02 18:21:37;;;;;;;0.60;0.40;;;;;;;;;;20859903;28;20285;-88
2022/06/02 18:31:54;;;;;;;0.75;0.30;;;;;;;;;;20879339;28;20278;-89
2022/06/02 18:42:15;;;;;;;0.40;0.30;;;;;;;;;;20933878;28;20234;-89
2022/06/02 18:52:54;;;;;;;0.55;0.30;;;24.30;74.50;;;;;;20817887;28;20234;-89
2022/06/02 19:03:51;;;;;;;0.98;0.50;;;;;;;;;;20885884;28;20232;-89
2022/06/02 19:36:26;;;;;;;1.77;0.38;;;;;;;;;;20836385;28;20298;-90
2022/06/02 19:47:32;;;;;;;1.48;0.50;;;;;;;;;;20978524;23;20349;-77
2022/06/02 19:57:41;;;;;;;0.50;0.45;;;;;;;;;;20979996;28;20285;-77
2022/06/02 20:07:51;;;;;;;1.23;0.50;;;;;;;;;;20985784;28;20200;-77
2022/06/02 20:18:00;;;;;;;0.60;0.43;;;;;;;;;;20984042;28;20813;-77
2022/06/02 20:28:11;;;;;;;1.15;0.52;;;;;;;;;;20981642;28;20215;-77
2022/06/02 20:38:15;;;;;;;1.98;0.63;;;;;;;;;;20979780;28;20217;-77
2022/06/02 20:48:27;;;;;;;2.75;0.40;;;;;;;;;;20982334;28;20256;-77
2022/06/02 20:58:43;;;;;;;1.15;0.40;;;22.90;84.00;;;;;;20979891;28;20258;-77
2022/06/02 21:08:55;;;;;;;1.25;0.70;;;22.90;97.30;;;;;;20980453;28;20704;-77
2022/06/02 21:19:01;;;;;;;1.85;0.60;;;;;;;;;;20979270;28;20538;-77
2022/06/02 21:29:13;;;;;;;1.63;0.60;;;22.60;97.70;;;;;;20984342;28;20205;-77
2022/06/02 21:39:25;;;;;;;4.30;0.90;;;;;;;;;;20993340;28;20239;-77
2022/06/02 21:49:29;;;;;;;1.23;0.50;;;;;;;;;;21025160;28;20222;-77
2022/06/02 21:59:48;;;;;;;1.20;0.57;;;;;;;;;;21037804;28;20228;-77
2022/06/02 22:09:56;;;;;;;1.07;0.70;;;;;;;;;;21003793;28;20258;-77
2022/06/02 22:20:09;;;;;;;0.63;0.50;;;21.90;92.60;;;;;;21007557;28;20233;-77
2022/06/02 22:30:20;;;;;;;1.23;0.50;;;;;;;;;;21008777;28;20756;-77
2022/06/02 22:40:22;;;;;;;1.83;0.53;;;;;;;;;;20990286;28;20273;-77
2022/06/02 22:50:48;;;;;;;0.50;0.40;;;21.50;84.00;;;;;;20996654;28;20290;-77
2022/06/02 23:01:24;;;;;;;0.70;0.40;;;21.40;84.10;;;;;;21000948;28;20252;-77
2022/06/02 23:11:49;;;;;;;0.30;0.30;;;21.30;95.30;;;;;;20997256;28;20247;-77
2022/06/02 23:21:52;;;;;;;0.33;0.30;;;;;;;;;;21000810;28;20252;-78
2022/06/02 23:31:57;;;;;;;0.53;0.33;;;;;;;;;;21001633;28;20213;-76
2022/06/02 23:52:37;;;;;;;0.30;0.30;;;;;;;;;;20981255;28;20215;-76
